Strona główna
METAR-TAF:

METAR-TAF

Lotnisko :

Port lotniczy Kuwejt

Kuwejt, Kuwejt

Szerokość geograficzna: 29-13N, Długość geograficzna: 047-59E, wysokość: 55 m

Aktualna obserwacja pogody

Raport powstał 23 minut temu, godzina 14:00 UTC
Wiatr 18 kt od północ
Temperatura 44°C
Wilgotność 13%
Ciśnienie 1002 hPa
Widzialność 10 km lub więcej
Brak chmur poniżej 1500 m i brak chmur cumulonimbus

METAR: OKBK 191400Z 35018KT CAVOK 44/09 Q1002 NOSIG

czas: 17:23 (14:23 UTC)

Prognoza

Raport powstał 3 godziny i 38 minut temu, godzina 10:45 UTC
Prognoza ważna od 19 godzina 12 UTC do 20 godzina 18 UTC
Wiatr 15 kt od północ w porywach dochodzący do 25 kt
Widzialność: 7000 m
bezchmurnie
Przejściowo
od 19 godzina 12 UTC do 19 godzina 18 UTC
Widzialność: 3000 m
zawieja pyłowa

TAF: OKBK 191045Z 1912/2018 35015G25KT 7000 SKC TEMPO 1912/1918 3000 BLDU

Obserwacja i prognoza pogody dla ponad 4000 lotnisk (raport METAR i TAF).

Dostępne stacje oznaczono żółtymi i czerwonymi punktami na mapie.

Najedź kursorem aby zobaczyć nazwę stacji.

Kliknij aby zobaczyć obserwacje i prognozy pogody.

Aby zmienić mapę: kliknij na zielony przycisk z czarnym krzyżykiem, aby powiększyć; na zielony przycisk z myślnikiem, aby pomniejszyć; na zielone strzałki, aby przejść do map sąsiednich.


METAR-TAF: